Time;durP1;ratioP1;P1;durP2;ratioP2;P2;SDS_P1;SDS_P2;PMS_P1;PMS_P2;Temp;Humidity;BMP_temperature;BMP_pressure;BME280_temperature;BME280_humidity;BME280_pressure;Samples;Min_cycle;Max_cycle;Signal;HPM_P1;HPM_P2
2021/04/20 00:01:41;;;;;;;87.40;51.87;;;6.00;99.90;;;;;;5007014;28;20470;-73
2021/04/20 00:04:08;;;;;;;85.80;53.17;;;6.10;99.90;;;;;;5018643;28;20984;-72
2021/04/20 00:06:35;;;;;;;79.67;52.90;;;6.00;99.90;;;;;;5022654;28;20543;-74
2021/04/20 00:09:04;;;;;;;68.17;47.33;;;6.00;99.90;;;;;;5013614;28;20457;-72
2021/04/20 00:11:30;;;;;;;80.83;51.03;;;5.80;99.90;;;;;;5014523;28;20488;-71
2021/04/20 00:13:57;;;;;;;61.57;45.83;;;5.70;99.90;;;;;;5019384;28;20495;-74
2021/04/20 00:16:24;;;;;;;57.17;42.37;;;5.70;99.90;;;;;;5020534;28;20507;-75
2021/04/20 00:18:50;;;;;;;58.60;43.00;;;5.50;99.90;;;;;;5022439;28;20464;-72
2021/04/20 00:21:17;;;;;;;56.50;41.30;;;5.40;99.90;;;;;;5015532;28;20473;-72
2021/04/20 00:23:44;;;;;;;54.40;42.93;;;5.30;99.90;;;;;;5020569;28;20457;-74
2021/04/20 00:26:11;;;;;;;56.73;43.03;;;5.20;99.90;;;;;;5018367;28;20862;-74
2021/04/20 00:28:37;;;;;;;57.37;42.00;;;5.10;99.90;;;;;;5018999;28;20466;-73
2021/04/20 00:31:04;;;;;;;55.33;40.60;;;5.10;99.90;;;;;;5022350;28;20456;-73
2021/04/20 00:33:30;;;;;;;53.87;42.73;;;5.00;99.90;;;;;;5020531;28;20486;-73
2021/04/20 00:35:56;;;;;;;67.33;49.43;;;5.00;99.90;;;;;;5016909;28;20546;-72
2021/04/20 00:38:23;;;;;;;70.60;49.53;;;5.00;99.90;;;;;;5016061;28;20468;-73
2021/04/20 00:40:50;;;;;;;58.23;44.10;;;5.10;99.90;;;;;;5018059;28;20540;-74
2021/04/20 00:43:17;;;;;;;59.43;45.03;;;5.10;99.90;;;;;;5013822;28;20516;-73
2021/04/20 00:45:44;;;;;;;63.13;47.73;;;5.00;99.90;;;;;;5021807;28;20461;-72
2021/04/20 00:48:10;;;;;;;59.43;45.73;;;4.90;99.90;;;;;;5018267;28;20522;-72
2021/04/20 00:50:40;;;;;;;69.20;46.83;;;4.90;99.90;;;;;;5016971;28;20461;-74
2021/04/20 00:53:08;;;;;;;55.37;43.10;;;4.80;99.90;;;;;;5016801;28;20471;-73
2021/04/20 00:55:34;;;;;;;58.10;44.63;;;4.80;99.90;;;;;;5020323;28;20581;-73
2021/04/20 00:58:02;;;;;;;59.13;45.00;;;4.80;99.90;;;;;;5016951;28;20469;-72
2021/04/20 01:00:30;;;;;;;63.23;48.33;;;4.70;99.90;;;;;;5018763;28;20461;-72
2021/04/20 01:02:57;;;;;;;54.40;43.67;;;4.70;99.90;;;;;;5010957;28;20492;-72
2021/04/20 01:05:26;;;;;;;64.43;45.33;;;4.70;99.90;;;;;;5017598;28;20464;-72
2021/04/20 01:07:57;;;;;;;57.40;45.37;;;4.60;99.90;;;;;;5017168;28;20583;-71
2021/04/20 01:10:24;;;;;;;60.67;45.57;;;4.50;99.90;;;;;;5011887;28;20469;-73
2021/04/20 01:12:51;;;;;;;61.07;45.90;;;4.40;99.90;;;;;;5016371;28;20465;-71
2021/04/20 01:15:18;;;;;;;66.17;46.63;;;4.40;99.90;;;;;;5017185;28;20546;-73
2021/04/20 01:17:44;;;;;;;59.37;46.50;;;4.50;99.90;;;;;;5021634;28;20502;-73
2021/04/20 01:20:13;;;;;;;64.43;45.90;;;4.50;99.90;;;;;;5015194;28;20464;-71
2021/04/20 01:22:41;;;;;;;53.57;43.10;;;4.50;99.90;;;;;;5012326;28;20461;-72
2021/04/20 01:25:10;;;;;;;40.80;35.93;;;4.40;99.90;;;;;;5017022;28;20465;-71
2021/04/20 01:27:37;;;;;;;51.00;39.37;;;4.30;99.90;;;;;;5010349;28;20819;-71
2021/04/20 01:30:05;;;;;;;51.53;40.27;;;4.10;99.90;;;;;;5018028;28;22547;-72
2021/04/20 01:32:35;;;;;;;48.23;39.77;;;4.10;99.90;;;;;;5016908;28;20735;-72
2021/04/20 01:35:02;;;;;;;46.17;38.37;;;4.10;99.90;;;;;;5013920;28;20996;-72
2021/04/20 01:37:28;;;;;;;41.10;35.37;;;4.00;99.90;;;;;;5017622;28;20468;-71
2021/04/20 01:39:55;;;;;;;45.93;37.70;;;3.90;99.90;;;;;;5014038;28;20460;-72
2021/04/20 01:42:22;;;;;;;46.07;36.30;;;3.80;99.90;;;;;;5018844;28;21035;-72
2021/04/20 01:44:48;;;;;;;57.80;43.67;;;3.80;99.90;;;;;;5018092;28;20473;-73
2021/04/20 01:47:16;;;;;;;57.30;42.03;;;3.80;99.90;;;;;;5018162;28;20465;-71
2021/04/20 01:49:43;;;;;;;41.50;36.40;;;3.90;99.90;;;;;;5016300;28;20923;-73
2021/04/20 01:52:10;;;;;;;38.80;34.83;;;3.80;99.90;;;;;;5015363;28;20523;-71
2021/04/20 01:54:40;;;;;;;52.00;42.27;;;3.80;99.90;;;;;;5015886;28;21019;-71
2021/04/20 01:57:08;;;;;;;44.47;37.57;;;3.70;99.90;;;;;;5009952;28;20563;-71
2021/04/20 01:59:36;;;;;;;43.93;36.33;;;3.70;99.90;;;;;;5016158;28;20551;-73
2021/04/20 02:02:03;;;;;;;38.97;34.67;;;3.70;99.90;;;;;;5021114;28;20495;-73
2021/04/20 02:04:29;;;;;;;41.07;35.63;;;3.60;99.90;;;;;;5015611;28;20611;-72
2021/04/20 02:06:56;;;;;;;42.30;36.13;;;3.60;99.90;;;;;;5015174;28;20468;-73
2021/04/20 02:09:22;;;;;;;50.00;40.60;;;3.60;99.90;;;;;;5015266;28;20475;-72
2021/04/20 02:11:49;;;;;;;51.33;40.97;;;3.60;99.90;;;;;;5011435;28;20461;-71
2021/04/20 02:14:16;;;;;;;42.50;36.50;;;3.60;99.90;;;;;;5016242;28;20458;-73
2021/04/20 02:16:43;;;;;;;47.90;40.47;;;3.50;99.90;;;;;;5017304;28;20475;-73
2021/04/20 02:19:13;;;;;;;51.90;37.97;;;3.50;99.90;;;;;;5011701;28;20494;-72
2021/04/20 02:21:40;;;;;;;45.37;37.97;;;3.40;99.90;;;;;;5013742;28;21005;-72
2021/04/20 02:24:10;;;;;;;48.50;38.63;;;3.40;99.90;;;;;;5010959;28;20496;-71
2021/04/20 02:26:38;;;;;;;48.50;38.40;;;3.30;99.90;;;;;;5012728;28;20523;-71
2021/04/20 02:29:06;;;;;;;45.43;36.77;;;3.30;99.90;;;;;;5019779;28;20472;-72
2021/04/20 02:31:34;;;;;;;43.13;36.77;;;3.30;99.90;;;;;;5011304;28;20832;-73
2021/04/20 02:34:04;;;;;;;48.37;38.87;;;3.20;99.90;;;;;;5015816;28;20529;-71
2021/04/20 02:36:31;;;;;;;48.33;37.23;;;3.20;99.90;;;;;;5009339;28;20500;-73
2021/04/20 02:38:58;;;;;;;47.30;37.73;;;3.20;99.90;;;;;;5015225;28;21027;-73
2021/04/20 02:41:25;;;;;;;53.40;39.03;;;3.20;99.90;;;;;;5009767;28;20551;-71
2021/04/20 02:43:52;;;;;;;47.60;37.70;;;3.10;99.90;;;;;;5015593;28;20530;-72
2021/04/20 02:46:19;;;;;;;50.63;37.60;;;3.20;99.90;;;;;;5010124;28;20519;-73
2021/04/20 02:48:46;;;;;;;67.33;36.70;;;3.20;99.90;;;;;;5013641;28;20972;-74
2021/04/20 02:51:14;;;;;;;59.13;41.43;;;3.20;99.90;;;;;;5018511;28;20507;-71
2021/04/20 02:53:42;;;;;;;54.17;39.00;;;3.20;99.90;;;;;;5012624;28;20980;-72
2021/04/20 02:56:11;;;;;;;54.20;40.10;;;3.20;99.90;;;;;;5018228;28;21052;-72
2021/04/20 02:58:39;;;;;;;55.33;41.47;;;3.30;99.90;;;;;;5011679;28;20852;-71
2021/04/20 03:01:11;;;;;;;65.20;42.43;;;3.30;99.90;;;;;;5013548;28;20833;-71
2021/04/20 03:03:40;;;;;;;61.40;41.63;;;3.30;99.90;;;;;;5015338;28;20508;-72
2021/04/20 03:06:07;;;;;;;65.13;43.80;;;3.20;99.90;;;;;;5009792;28;20461;-71
2021/04/20 03:08:36;;;;;;;57.03;41.20;;;3.20;99.90;;;;;;5013311;28;20494;-71
2021/04/20 03:11:06;;;;;;;69.10;44.00;;;3.20;99.90;;;;;;5017904;28;20626;-73
2021/04/20 03:13:33;;;;;;;63.23;43.93;;;3.10;99.90;;;;;;5014389;28;20901;-73
2021/04/20 03:16:04;;;;;;;53.87;40.53;;;3.10;99.90;;;;;;5015913;28;21021;-71
2021/04/20 03:18:30;;;;;;;54.07;39.40;;;3.10;99.90;;;;;;5011455;28;20479;-71
2021/04/20 03:20:57;;;;;;;62.93;40.27;;;3.00;99.90;;;;;;5018434;28;20516;-72
2021/04/20 03:23:23;;;;;;;55.20;40.93;;;3.00;99.90;;;;;;5020143;28;20478;-73
2021/04/20 03:25:51;;;;;;;53.87;40.90;;;3.00;99.90;;;;;;5013813;28;20471;-71
2021/04/20 03:28:18;;;;;;;57.90;38.30;;;3.00;99.90;;;;;;5014903;28;20466;-72
2021/04/20 03:30:44;;;;;;;54.47;41.10;;;3.10;99.90;;;;;;5013205;28;20810;-72
2021/04/20 03:33:16;;;;;;;57.17;42.10;;;3.00;99.90;;;;;;5014740;28;20584;-72
2021/04/20 03:35:55;;;;;;;53.50;40.90;;;3.00;99.90;;;;;;5011212;28;20532;-71
2021/04/20 03:38:27;;;;;;;57.83;41.50;;;3.00;99.90;;;;;;5015937;28;20475;-71
2021/04/20 03:40:59;;;;;;;54.53;39.07;;;2.90;99.90;;;;;;5015997;28;20471;-71
2021/04/20 03:43:32;;;;;;;150.73;41.57;;;2.90;99.90;;;;;;5016352;28;20508;-73
2021/04/20 03:46:03;;;;;;;481.57;60.57;;;2.80;99.90;;;;;;5013662;28;20467;-72
2021/04/20 03:48:34;;;;;;;583.53;61.83;;;2.80;99.90;;;;;;5019703;28;20475;-72
2021/04/20 03:51:05;;;;;;;458.30;55.87;;;2.70;99.90;;;;;;5017087;28;20772;-71
2021/04/20 03:53:33;;;;;;;542.43;56.57;;;2.80;99.90;;;;;;5017509;28;20817;-73
2021/04/20 03:56:03;;;;;;;630.80;62.97;;;2.80;99.90;;;;;;5017335;28;20499;-73
2021/04/20 03:58:31;;;;;;;275.97;44.50;;;2.80;99.90;;;;;;5015577;28;20471;-73
2021/04/20 04:01:04;;;;;;;286.53;45.77;;;2.80;99.90;;;;;;5017858;28;20970;-73
2021/04/20 04:03:31;;;;;;;488.93;55.60;;;2.90;99.90;;;;;;5014084;28;20552;-70
2021/04/20 04:06:01;;;;;;;681.37;64.10;;;2.90;99.90;;;;;;5020277;28;20467;-72
2021/04/20 04:08:29;;;;;;;601.27;61.57;;;2.80;99.90;;;;;;5020726;28;20502;-72
2021/04/20 04:10:58;;;;;;;547.03;59.63;;;2.80;99.90;;;;;;5018357;28;20844;-73
2021/04/20 04:13:28;;;;;;;353.30;48.90;;;2.70;99.90;;;;;;5020147;28;20470;-71
2021/04/20 04:15:59;;;;;;;229.80;48.07;;;2.80;99.90;;;;;;5011556;28;20496;-73
2021/04/20 04:18:27;;;;;;;123.90;47.47;;;2.80;99.90;;;;;;5021377;28;20490;-74
2021/04/20 04:20:56;;;;;;;149.50;50.10;;;2.90;99.90;;;;;;5013382;28;20472;-72
2021/04/20 04:23:25;;;;;;;229.07;48.00;;;3.00;99.90;;;;;;5022752;28;20471;-74
2021/04/20 04:25:55;;;;;;;210.33;49.83;;;3.10;99.90;;;;;;5015883;28;20480;-71
2021/04/20 04:28:23;;;;;;;485.50;55.70;;;3.20;99.90;;;;;;5016983;28;20521;-75
2021/04/20 04:30:51;;;;;;;569.97;62.87;;;3.20;99.90;;;;;;5020981;28;20522;-71
2021/04/20 04:33:19;;;;;;;422.77;54.23;;;3.20;99.90;;;;;;5009390;28;20496;-72
2021/04/20 04:35:48;;;;;;;297.03;56.10;;;3.30;99.90;;;;;;5023737;28;20590;-74
2021/04/20 04:38:15;;;;;;;671.40;65.57;;;3.40;99.90;;;;;;5020959;28;20468;-74
2021/04/20 04:40:43;;;;;;;234.57;47.37;;;3.40;99.90;;;;;;5014840;28;20477;-72
2021/04/20 04:43:10;;;;;;;261.87;48.13;;;3.50;99.90;;;;;;5017292;28;20461;-72
2021/04/20 04:45:37;;;;;;;232.60;47.77;;;3.50;99.90;;;;;;5017513;28;20887;-74
2021/04/20 04:48:09;;;;;;;470.97;56.00;;;3.40;99.90;;;;;;5022492;28;20464;-74
2021/04/20 04:50:37;;;;;;;300.37;48.60;;;3.30;99.90;;;;;;5017252;28;20472;-73
2021/04/20 04:53:05;;;;;;;241.13;50.77;;;3.30;99.90;;;;;;5015187;28;20468;-72
2021/04/20 04:55:31;;;;;;;443.90;57.40;;;3.30;99.90;;;;;;5016053;28;20492;-75
2021/04/20 04:57:59;;;;;;;564.17;59.77;;;3.40;99.90;;;;;;5020344;28;20487;-72
2021/04/20 05:00:26;;;;;;;233.00;48.70;;;3.40;99.90;;;;;;5017486;28;20899;-72
2021/04/20 05:02:54;;;;;;;298.43;51.87;;;3.40;99.90;;;;;;5013542;28;20477;-73
2021/04/20 05:05:25;;;;;;;274.90;50.07;;;3.50;99.90;;;;;;5015369;28;20479;-72
2021/04/20 05:07:57;;;;;;;310.83;50.50;;;3.50;99.90;;;;;;5019514;28;20824;-72
2021/04/20 05:10:24;;;;;;;316.23;54.63;;;3.40;99.90;;;;;;5014693;28;20901;-72
2021/04/20 05:12:52;;;;;;;379.20;56.00;;;3.30;99.90;;;;;;5016077;28;20976;-73
2021/04/20 05:15:19;;;;;;;313.27;54.67;;;3.30;99.90;;;;;;5016154;28;20527;-71
2021/04/20 05:17:45;;;;;;;545.83;61.00;;;3.30;99.90;;;;;;5015432;28;20465;-72
2021/04/20 05:20:16;;;;;;;564.83;67.77;;;3.30;99.90;;;;;;5020754;28;20471;-72
2021/04/20 05:22:43;;;;;;;660.53;65.23;;;3.40;99.90;;;;;;5019421;28;20469;-72
2021/04/20 05:25:12;;;;;;;636.90;66.33;;;3.50;99.90;;;;;;5016519;28;20977;-71
2021/04/20 05:27:38;;;;;;;765.37;65.57;;;3.60;99.90;;;;;;5016018;28;20964;-73
2021/04/20 05:30:07;;;;;;;782.13;67.30;;;3.60;99.90;;;;;;5019673;28;20481;-73
2021/04/20 05:32:33;;;;;;;902.40;70.87;;;3.70;99.90;;;;;;5013693;28;21015;-72
2021/04/20 05:35:01;;;;;;;983.53;79.47;;;4.00;99.90;;;;;;5015516;28;20485;-73
2021/04/20 05:37:34;;;;;;;907.10;71.17;;;4.10;99.90;;;;;;5016073;28;21039;-73
2021/04/20 05:40:10;;;;;;;717.53;77.53;;;4.20;99.90;;;;;;5015107;28;20550;-72
2021/04/20 05:42:37;;;;;;;446.60;66.07;;;4.40;99.90;;;;;;5008946;28;20504;-73
2021/04/20 05:45:05;;;;;;;416.83;59.53;;;4.50;99.90;;;;;;5017018;28;20477;-73
2021/04/20 05:47:32;;;;;;;872.13;76.80;;;4.60;99.90;;;;;;5012584;28;20840;-73
2021/04/20 05:49:59;;;;;;;363.13;55.27;;;4.80;99.90;;;;;;5018625;28;20554;-73
2021/04/20 05:52:27;;;;;;;543.10;59.73;;;4.80;99.90;;;;;;5013951;28;20592;-73
2021/04/20 05:54:57;;;;;;;508.63;72.00;;;4.80;99.90;;;;;;5017893;28;20469;-73
2021/04/20 05:57:26;;;;;;;615.30;83.47;;;5.00;99.90;;;;;;5015655;28;20466;-73
2021/04/20 05:59:56;;;;;;;381.07;64.53;;;5.20;99.90;;;;;;5015816;28;20462;-73
2021/04/20 06:02:23;;;;;;;336.93;59.53;;;5.30;99.90;;;;;;5017181;28;20472;-73
2021/04/20 06:04:53;;;;;;;281.17;53.60;;;5.50;99.90;;;;;;5023683;28;20464;-73
2021/04/20 06:07:21;;;;;;;300.77;55.23;;;5.70;99.90;;;;;;5014559;28;20457;-73
2021/04/20 06:09:49;;;;;;;452.27;68.17;;;5.80;99.90;;;;;;5018417;28;20476;-74
2021/04/20 06:12:16;;;;;;;190.47;51.27;;;5.90;99.90;;;;;;5017582;28;20457;-74
2021/04/20 06:14:44;;;;;;;299.17;53.33;;;6.10;99.90;;;;;;5012247;28;20477;-73
2021/04/20 06:17:14;;;;;;;401.13;56.47;;;6.20;99.90;;;;;;5009134;28;20472;-74
2021/04/20 06:19:41;;;;;;;414.03;60.00;;;6.20;99.90;;;;;;5020615;28;20548;-73
2021/04/20 06:22:11;;;;;;;280.17;58.00;;;6.30;99.90;;;;;;5019482;28;20563;-73
2021/04/20 06:24:39;;;;;;;76.27;47.20;;;6.20;99.90;;;;;;5013325;28;20523;-74
2021/04/20 06:27:07;;;;;;;192.17;52.60;;;6.20;99.90;;;;;;5013796;28;20465;-73
2021/04/20 06:29:33;;;;;;;181.97;55.50;;;6.10;99.90;;;;;;5018718;28;20782;-75
2021/04/20 06:32:01;;;;;;;119.00;49.27;;;6.30;99.90;;;;;;5016296;28;20486;-75
2021/04/20 06:34:29;;;;;;;229.73;54.53;;;6.40;99.90;;;;;;5017695;28;20492;-74
2021/04/20 06:36:55;;;;;;;121.67;50.17;;;6.50;99.90;;;;;;5015193;28;20565;-73
2021/04/20 06:39:22;;;;;;;72.10;47.33;;;6.70;99.90;;;;;;5016214;28;20519;-75
2021/04/20 06:41:51;;;;;;;67.13;48.23;;;6.80;99.90;;;;;;5010736;28;20511;-75
2021/04/20 06:44:23;;;;;;;57.87;46.00;;;6.90;99.90;;;;;;5008376;28;20477;-74
2021/04/20 06:46:53;;;;;;;87.30;52.37;;;7.00;99.90;;;;;;5013483;28;20480;-75
2021/04/20 06:49:24;;;;;;;82.87;54.13;;;7.20;99.90;;;;;;5015616;28;20458;-75
2021/04/20 06:51:57;;;;;;;75.03;49.50;;;7.30;99.90;;;;;;5015457;28;20466;-73
2021/04/20 06:54:26;;;;;;;68.93;49.17;;;7.30;99.90;;;;;;5013651;28;20555;-74
2021/04/20 06:57:00;;;;;;;72.50;51.50;;;7.30;99.90;;;;;;5012320;28;20539;-73
2021/04/20 06:59:34;;;;;;;72.57;54.33;;;7.30;99.90;;;;;;5012741;28;20468;-73
2021/04/20 07:02:10;;;;;;;80.33;55.27;;;7.30;99.90;;;;;;5008566;28;20813;-74
2021/04/20 07:04:44;;;;;;;88.63;57.47;;;7.30;99.90;;;;;;5015199;28;20467;-73
2021/04/20 07:07:26;;;;;;;98.37;59.07;;;7.60;99.90;;;;;;5020570;28;20477;-72
2021/04/20 07:09:59;;;;;;;115.07;61.63;;;7.80;99.90;;;;;;5018059;28;20478;-73
2021/04/20 07:12:26;;;;;;;121.27;63.53;;;8.00;99.90;;;;;;5012477;28;20462;-74
2021/04/20 07:14:55;;;;;;;128.03;69.87;;;8.10;99.90;;;;;;5014830;28;20987;-74
2021/04/20 07:17:58;;;;;;;127.47;66.90;;;8.20;99.90;;;;;;5017041;28;20478;-73
2021/04/20 07:20:36;;;;;;;114.80;63.30;;;8.20;99.90;;;;;;5010304;28;20457;-74
2021/04/20 07:23:27;;;;;;;124.17;67.70;;;8.20;99.90;;;;;;5007865;28;20479;-72
2021/04/20 07:26:06;;;;;;;130.77;62.73;;;8.40;99.90;;;;;;5012604;28;20465;-72
2021/04/20 07:28:43;;;;;;;104.20;57.27;;;8.60;99.90;;;;;;5015546;28;20467;-72
2021/04/20 07:31:15;;;;;;;107.67;57.27;;;8.70;99.90;;;;;;5018097;28;20572;-73
2021/04/20 07:34:08;;;;;;;115.93;61.53;;;8.60;99.90;;;;;;5010998;28;20502;-74
2021/04/20 07:36:48;;;;;;;119.13;60.43;;;8.80;99.90;;;;;;5014100;28;20491;-72
2021/04/20 07:39:18;;;;;;;112.27;61.03;;;8.90;99.90;;;;;;5014535;28;20561;-73
2021/04/20 07:41:51;;;;;;;111.20;62.90;;;9.10;99.90;;;;;;5015662;28;20463;-72
2021/04/20 07:44:22;;;;;;;107.30;65.27;;;9.20;99.90;;;;;;5010324;28;20472;-73
2021/04/20 07:46:53;;;;;;;136.27;66.80;;;9.30;99.90;;;;;;5017069;28;21000;-73
2021/04/20 07:49:26;;;;;;;131.63;67.07;;;9.40;99.90;;;;;;5014713;28;20986;-72
2021/04/20 07:52:03;;;;;;;117.77;65.80;;;9.50;99.90;;;;;;5016990;28;20978;-73
2021/04/20 07:54:38;;;;;;;127.20;65.53;;;9.70;99.90;;;;;;5009116;28;20807;-73
2021/04/20 07:57:13;;;;;;;123.10;67.97;;;9.90;99.90;;;;;;5014174;28;20499;-72
2021/04/20 07:59:45;;;;;;;125.20;68.60;;;10.00;99.90;;;;;;5010835;28;20469;-73
2021/04/20 08:02:22;;;;;;;116.83;65.07;;;10.20;99.90;;;;;;5013272;28;20462;-73
2021/04/20 08:04:56;;;;;;;143.70;72.47;;;10.40;99.90;;;;;;5008561;28;21042;-74
2021/04/20 08:07:32;;;;;;;130.27;70.27;;;10.60;99.90;;;;;;5022728;28;20457;-72
2021/04/20 08:10:02;;;;;;;126.73;70.47;;;10.80;99.90;;;;;;5014899;28;20862;-72
2021/04/20 08:12:36;;;;;;;132.37;68.30;;;10.90;99.90;;;;;;5014933;28;20527;-74
2021/04/20 08:15:09;;;;;;;118.87;69.43;;;11.00;99.90;;;;;;5011256;28;20461;-74
2021/04/20 08:17:46;;;;;;;146.50;72.37;;;11.20;99.90;;;;;;5012104;28;20462;-73
2021/04/20 08:20:15;;;;;;;133.30;73.17;;;11.20;99.90;;;;;;5016921;28;20511;-75
2021/04/20 08:22:44;;;;;;;117.87;68.40;;;11.40;99.90;;;;;;5019644;28;20465;-74
2021/04/20 08:25:18;;;;;;;119.53;68.97;;;11.60;99.90;;;;;;5017922;28;20468;-72
2021/04/20 08:27:50;;;;;;;127.77;68.93;;;11.80;99.90;;;;;;5013167;28;20955;-74
2021/04/20 08:30:21;;;;;;;107.87;66.60;;;11.90;99.90;;;;;;5011147;28;20826;-73
2021/04/20 08:32:51;;;;;;;122.50;71.03;;;11.90;99.90;;;;;;5018413;28;20501;-72
2021/04/20 08:35:21;;;;;;;126.57;70.93;;;12.10;99.90;;;;;;5015652;28;20500;-72
2021/04/20 08:37:57;;;;;;;108.50;68.10;;;12.20;99.90;;;;;;5017787;28;20842;-72
2021/04/20 08:40:27;;;;;;;116.53;68.23;;;12.40;99.90;;;;;;5011946;28;20465;-73
2021/04/20 08:43:01;;;;;;;117.23;68.90;;;12.40;99.90;;;;;;5013524;28;20495;-72
2021/04/20 08:45:36;;;;;;;119.50;69.60;;;12.70;99.90;;;;;;5015065;28;20481;-72
2021/04/20 08:48:13;;;;;;;109.80;68.60;;;12.90;99.90;;;;;;5020786;28;20469;-73
2021/04/20 08:50:45;;;;;;;102.50;69.70;;;13.10;99.90;;;;;;5016145;28;20463;-72
2021/04/20 08:53:23;;;;;;;95.17;61.00;;;13.50;99.90;;;;;;5022566;28;20465;-73
2021/04/20 08:55:55;;;;;;;81.60;58.47;;;14.50;99.90;;;;;;5021639;28;20488;-73
2021/04/20 08:58:46;;;;;;;82.73;56.00;;;15.50;99.90;;;;;;5013455;28;20882;-74
2021/04/20 09:01:23;;;;;;;68.50;50.70;;;16.30;99.90;;;;;;5015430;28;20465;-75
2021/04/20 09:03:59;;;;;;;66.53;48.87;;;17.80;99.90;;;;;;5009676;28;20507;-73
2021/04/20 09:06:30;;;;;;;58.57;47.80;;;18.50;99.90;;;;;;5012472;28;20458;-74
2021/04/20 09:09:06;;;;;;;58.53;48.43;;;18.90;99.90;;;;;;5015551;28;20456;-73
2021/04/20 09:11:36;;;;;;;56.57;48.13;;;19.50;99.90;;;;;;5018415;28;20464;-75
2021/04/20 09:14:07;;;;;;;68.33;53.33;;;19.10;99.90;;;;;;5013152;28;20546;-74
2021/04/20 09:16:43;;;;;;;61.07;49.13;;;18.60;99.90;;;;;;5015944;28;20494;-73
2021/04/20 09:19:13;;;;;;;59.83;48.53;;;19.20;99.90;;;;;;5014540;28;20514;-74
2021/04/20 09:21:49;;;;;;;51.97;46.50;;;19.50;99.90;;;;;;5019713;28;20456;-73
2021/04/20 09:24:19;;;;;;;48.10;43.10;;;20.30;99.90;;;;;;5019094;28;20458;-74
2021/04/20 09:26:52;;;;;;;43.23;38.70;;;20.70;99.90;;;;;;5015878;28;20571;-74
2021/04/20 09:29:26;;;;;;;44.93;39.27;;;20.70;99.90;;;;;;5020388;28;20469;-74
2021/04/20 09:31:58;;;;;;;40.87;36.70;;;21.10;99.90;;;;;;5025568;28;20495;-74
2021/04/20 09:34:29;;;;;;;45.17;40.40;;;20.80;99.90;;;;;;5015699;28;20477;-73
2021/04/20 09:36:58;;;;;;;43.23;38.77;;;20.10;99.90;;;;;;5022531;28;20497;-73
2021/04/20 09:39:27;;;;;;;42.93;38.33;;;20.60;99.90;;;;;;5024240;28;20468;-74
2021/04/20 09:41:56;;;;;;;41.33;37.23;;;20.80;99.90;;;;;;5026515;28;20530;-74
2021/04/20 09:44:44;;;;;;;43.70;39.20;;;21.20;99.90;;;;;;5022533;28;20572;-75
2021/04/20 09:47:26;;;;;;;40.63;36.53;;;21.60;99.70;;;;;;5022208;28;20465;-74
2021/04/20 09:49:59;;;;;;;39.93;35.87;;;22.10;99.80;;;;;;5022647;28;20464;-74
2021/04/20 09:52:32;;;;;;;43.20;39.00;;;22.50;98.70;;;;;;5020062;28;20467;-74
2021/04/20 09:55:06;;;;;;;47.30;39.63;;;22.60;97.50;;;;;;5018146;28;20877;-74
2021/04/20 09:57:36;;;;;;;43.13;38.50;;;22.40;97.60;;;;;;5016014;28;20464;-74
2021/04/20 10:00:05;;;;;;;45.93;41.07;;;22.60;97.40;;;;;;5019292;28;20519;-74
2021/04/20 10:02:41;;;;;;;42.03;37.87;;;22.50;99.50;;;;;;5020512;28;20556;-75
2021/04/20 10:05:12;;;;;;;46.03;39.70;;;23.40;96.30;;;;;;5020025;28;20659;-73
2021/04/20 10:07:51;;;;;;;46.40;41.53;;;23.70;96.00;;;;;;5017778;28;20457;-74
2021/04/20 10:10:28;;;;;;;43.77;39.30;;;23.60;94.60;;;;;;5020464;28;20488;-74
2021/04/20 10:13:12;;;;;;;38.07;34.60;;;23.30;94.30;;;;;;5013879;28;20462;-74
2021/04/20 10:15:46;;;;;;;38.83;35.03;;;22.80;95.30;;;;;;5010564;28;20489;-74
2021/04/20 10:18:19;;;;;;;38.37;34.47;;;23.10;94.70;;;;;;5015052;28;20510;-74
2021/04/20 10:20:52;;;;;;;33.80;30.73;;;23.30;94.20;;;;;;5023179;28;20469;-74
2021/04/20 10:23:30;;;;;;;34.73;31.63;;;24.20;93.00;;;;;;5019863;28;20525;-74
2021/04/20 10:26:07;;;;;;;31.70;28.70;;;23.90;91.30;;;;;;5017247;28;20465;-74
2021/04/20 10:28:41;;;;;;;32.40;29.30;;;22.90;92.30;;;;;;5019124;28;20468;-74
2021/04/20 10:31:13;;;;;;;30.13;27.10;;;22.60;92.50;;;;;;5022562;28;20465;-74
2021/04/20 10:33:41;;;;;;;31.30;28.30;;;23.30;89.90;;;;;;5019130;28;20511;-74
2021/04/20 10:36:10;;;;;;;26.07;24.00;;;23.80;91.70;;;;;;5019005;28;20559;-74
2021/04/20 10:38:38;;;;;;;28.13;25.73;;;23.40;88.60;;;;;;5021011;28;20483;-74
2021/04/20 10:41:24;;;;;;;44.93;29.20;;;22.80;88.30;;;;;;5018858;28;20456;-74
2021/04/20 10:43:53;;;;;;;28.97;26.57;;;21.80;90.80;;;;;;5017129;28;20511;-74
2021/04/20 10:46:24;;;;;;;28.20;25.77;;;21.30;90.60;;;;;;5001259;28;21008;-74
2021/04/20 10:48:52;;;;;;;27.33;24.53;;;21.00;90.50;;;;;;5012785;28;20480;-73
2021/04/20 10:51:29;;;;;;;26.57;24.37;;;20.60;89.30;;;;;;5013803;28;20907;-74
2021/04/20 10:53:58;;;;;;;27.10;24.93;;;20.30;89.50;;;;;;5013798;28;20465;-74
2021/04/20 10:56:26;;;;;;;25.20;23.20;;;21.30;90.00;;;;;;5011008;28;20481;-74
2021/04/20 10:58:55;;;;;;;25.67;23.57;;;22.30;87.40;;;;;;5018656;28;21014;-74
2021/04/20 11:01:24;;;;;;;27.10;24.80;;;23.10;90.10;;;;;;5008455;28;20477;-75
2021/04/20 11:03:53;;;;;;;27.70;25.10;;;23.50;88.00;;;;;;5016622;28;20457;-75
2021/04/20 11:06:38;;;;;;;30.13;27.00;;;23.60;85.50;;;;;;5008442;28;20469;-75
2021/04/20 11:09:04;;;;;;;29.30;26.80;;;23.60;88.10;;;;;;5011562;28;20472;-74
2021/04/20 11:11:32;;;;;;;30.13;27.57;;;24.50;85.30;;;;;;5011789;28;20465;-75
2021/04/20 11:14:00;;;;;;;29.10;26.70;;;24.30;82.80;;;;;;5014494;28;20475;-75
2021/04/20 11:16:33;;;;;;;28.90;26.53;;;24.60;81.00;;;;;;5014780;28;20497;-75
2021/04/20 11:19:05;;;;;;;29.10;26.60;;;24.90;80.80;;;;;;5010772;28;20462;-75
2021/04/20 11:21:35;;;;;;;27.87;25.63;;;25.10;77.80;;;;;;5013258;28;20497;-75
2021/04/20 11:24:09;;;;;;;31.83;28.73;;;25.10;77.70;;;;;;5017138;28;20991;-75
2021/04/20 11:26:40;;;;;;;30.73;28.03;;;25.90;77.90;;;;;;5019795;28;20876;-74
2021/04/20 11:29:11;;;;;;;31.90;28.97;;;26.20;76.00;;;;;;5014227;28;20460;-74
2021/04/20 11:31:45;;;;;;;28.53;26.33;;;26.40;73.40;;;;;;5008948;28;20552;-73
2021/04/20 11:34:17;;;;;;;29.37;27.07;;;25.00;74.00;;;;;;5014281;28;20485;-73
2021/04/20 11:36:48;;;;;;;31.03;28.30;;;25.80;72.80;;;;;;5010620;28;20574;-73
2021/04/20 11:39:19;;;;;;;31.37;28.03;;;26.10;72.50;;;;;;5011417;28;20547;-73
2021/04/20 11:41:54;;;;;;;31.47;28.27;;;25.80;70.80;;;;;;5008027;28;20502;-73
2021/04/20 11:44:22;;;;;;;32.17;29.17;;;24.80;75.20;;;;;;5018444;28;20457;-73
2021/04/20 11:46:50;;;;;;;32.40;29.27;;;24.40;74.00;;;;;;5016122;28;20492;-73
2021/04/20 11:49:22;;;;;;;31.00;28.17;;;24.20;73.30;;;;;;5011496;28;20468;-72
2021/04/20 11:51:49;;;;;;;31.70;28.80;;;24.60;74.40;;;;;;5007448;28;20960;-73
2021/04/20 11:54:20;;;;;;;32.00;29.07;;;24.40;72.60;;;;;;5015728;28;20464;-72
2021/04/20 11:56:49;;;;;;;29.53;26.93;;;24.10;71.80;;;;;;5014461;28;20466;-72
2021/04/20 11:59:19;;;;;;;29.17;26.77;;;23.00;73.40;;;;;;5022254;28;20466;-73
2021/04/20 12:01:48;;;;;;;29.43;26.93;;;22.90;75.60;;;;;;5020051;28;20464;-72
2021/04/20 12:04:15;;;;;;;27.60;25.20;;;23.00;75.40;;;;;;5016642;28;20475;-72
2021/04/20 12:06:44;;;;;;;29.53;27.13;;;23.50;76.30;;;;;;5015270;28;20497;-73
2021/04/20 12:09:19;;;;;;;29.77;26.97;;;24.80;74.70;;;;;;5015260;28;20464;-73
2021/04/20 12:11:47;;;;;;;30.13;27.43;;;24.40;70.70;;;;;;5019982;28;20487;-73
2021/04/20 12:14:18;;;;;;;28.40;26.07;;;23.80;72.90;;;;;;5022407;28;21078;-72
2021/04/20 12:16:45;;;;;;;29.20;26.67;;;23.00;71.90;;;;;;5016864;28;20471;-72
2021/04/20 12:19:15;;;;;;;30.57;27.93;;;23.10;72.80;;;;;;5019381;28;20460;-73
2021/04/20 12:21:46;;;;;;;27.37;25.00;;;23.30;73.00;;;;;;5016876;28;20542;-72
2021/04/20 12:24:17;;;;;;;30.00;27.40;;;23.20;75.60;;;;;;5019300;28;21315;-73
2021/04/20 12:26:50;;;;;;;29.47;27.07;;;22.60;73.50;;;;;;5018544;28;20534;-73
2021/04/20 12:29:20;;;;;;;28.13;25.50;;;22.60;72.40;;;;;;5012223;28;20496;-72
2021/04/20 12:31:47;;;;;;;29.53;26.33;;;23.10;72.10;;;;;;5022689;28;20520;-73
2021/04/20 12:34:15;;;;;;;28.57;26.20;;;23.00;70.50;;;;;;5019014;28;20489;-73
2021/04/20 12:36:47;;;;;;;28.60;25.97;;;23.00;71.70;;;;;;5018331;28;20564;-73
2021/04/20 12:39:24;;;;;;;27.07;24.87;;;22.60;71.80;;;;;;5014481;28;20469;-73
2021/04/20 12:41:52;;;;;;;28.33;25.90;;;22.60;73.40;;;;;;5021178;28;20883;-73
2021/04/20 12:44:26;;;;;;;29.87;27.27;;;22.50;72.20;;;;;;5014512;28;20465;-73
2021/04/20 12:46:55;;;;;;;29.07;26.67;;;22.20;73.50;;;;;;5011198;28;20492;-73